sensor_id;sensor_type;location;lat;lon;timestamp;P1;durP1;ratioP1;P2;durP2;ratioP2
21814;SDS011;11069;48.988;8.450;2023-04-23T00:01:04;9.82;;;7.82;;
21814;SDS011;11069;48.988;8.450;2023-04-23T00:03:31;10.02;;;7.60;;
21814;SDS011;11069;48.988;8.450;2023-04-23T00:05:58;13.65;;;7.63;;
21814;SDS011;11069;48.988;8.450;2023-04-23T00:08:27;9.93;;;8.18;;
21814;SDS011;11069;48.988;8.450;2023-04-23T00:10:54;13.95;;;9.15;;
21814;SDS011;11069;48.988;8.450;2023-04-23T00:13:20;16.02;;;9.40;;
21814;SDS011;11069;48.988;8.450;2023-04-23T00:15:45;11.38;;;9.55;;
21814;SDS011;11069;48.988;8.450;2023-04-23T00:18:12;13.13;;;10.23;;
21814;SDS011;11069;48.988;8.450;2023-04-23T00:20:37;13.35;;;10.40;;
21814;SDS011;11069;48.988;8.450;2023-04-23T00:23:03;12.82;;;10.85;;
21814;SDS011;11069;48.988;8.450;2023-04-23T00:25:28;12.20;;;10.90;;
21814;SDS011;11069;48.988;8.450;2023-04-23T00:27:54;14.18;;;12.07;;
21814;SDS011;11069;48.988;8.450;2023-04-23T00:30:20;16.40;;;11.63;;
21814;SDS011;11069;48.988;8.450;2023-04-23T00:32:46;14.48;;;12.25;;
21814;SDS011;11069;48.988;8.450;2023-04-23T00:35:12;17.20;;;12.65;;
21814;SDS011;11069;48.988;8.450;2023-04-23T00:37:38;15.50;;;13.18;;
21814;SDS011;11069;48.988;8.450;2023-04-23T00:40:03;17.80;;;12.93;;
21814;SDS011;11069;48.988;8.450;2023-04-23T00:42:29;18.02;;;13.40;;
21814;SDS011;11069;48.988;8.450;2023-04-23T00:44:55;16.42;;;13.18;;
21814;SDS011;11069;48.988;8.450;2023-04-23T00:47:21;13.98;;;12.55;;
21814;SDS011;11069;48.988;8.450;2023-04-23T00:49:47;17.40;;;13.60;;
21814;SDS011;11069;48.988;8.450;2023-04-23T00:52:14;15.07;;;13.15;;
21814;SDS011;11069;48.988;8.450;2023-04-23T00:54:40;15.95;;;13.40;;
21814;SDS011;11069;48.988;8.450;2023-04-23T00:57:06;15.00;;;12.90;;
21814;SDS011;11069;48.988;8.450;2023-04-23T00:59:32;16.50;;;12.85;;
21814;SDS011;11069;48.988;8.450;2023-04-23T01:01:59;18.75;;;12.70;;
21814;SDS011;11069;48.988;8.450;2023-04-23T01:04:26;15.00;;;11.80;;
21814;SDS011;11069;48.988;8.450;2023-04-23T01:06:53;14.98;;;12.30;;
21814;SDS011;11069;48.988;8.450;2023-04-23T01:09:20;17.48;;;12.70;;
21814;SDS011;11069;48.988;8.450;2023-04-23T01:11:47;14.68;;;12.18;;
21814;SDS011;11069;48.988;8.450;2023-04-23T01:14:14;13.63;;;12.20;;
21814;SDS011;11069;48.988;8.450;2023-04-23T01:16:40;14.57;;;13.00;;
21814;SDS011;11069;48.988;8.450;2023-04-23T01:19:06;18.95;;;13.25;;
21814;SDS011;11069;48.988;8.450;2023-04-23T01:21:34;16.08;;;12.90;;
21814;SDS011;11069;48.988;8.450;2023-04-23T01:24:04;19.35;;;13.23;;
21814;SDS011;11069;48.988;8.450;2023-04-23T01:26:30;15.43;;;12.75;;
21814;SDS011;11069;48.988;8.450;2023-04-23T01:28:56;15.27;;;12.98;;
21814;SDS011;11069;48.988;8.450;2023-04-23T01:31:22;15.77;;;12.35;;
21814;SDS011;11069;48.988;8.450;2023-04-23T01:33:48;23.20;;;12.65;;
21814;SDS011;11069;48.988;8.450;2023-04-23T01:36:17;17.52;;;12.65;;
21814;SDS011;11069;48.988;8.450;2023-04-23T01:38:43;16.83;;;12.57;;
21814;SDS011;11069;48.988;8.450;2023-04-23T01:41:09;12.80;;;11.27;;
21814;SDS011;11069;48.988;8.450;2023-04-23T01:43:35;17.23;;;12.35;;
21814;SDS011;11069;48.988;8.450;2023-04-23T01:46:01;14.32;;;11.25;;
21814;SDS011;11069;48.988;8.450;2023-04-23T01:48:27;14.35;;;11.70;;
21814;SDS011;11069;48.988;8.450;2023-04-23T01:50:52;13.68;;;11.80;;
21814;SDS011;11069;48.988;8.450;2023-04-23T01:53:18;15.02;;;11.93;;
21814;SDS011;11069;48.988;8.450;2023-04-23T01:55:44;15.50;;;11.00;;
21814;SDS011;11069;48.988;8.450;2023-04-23T01:58:12;13.48;;;10.70;;
21814;SDS011;11069;48.988;8.450;2023-04-23T02:00:37;14.05;;;11.25;;
21814;SDS011;11069;48.988;8.450;2023-04-23T02:03:03;12.73;;;9.95;;
21814;SDS011;11069;48.988;8.450;2023-04-23T02:05:29;13.63;;;9.88;;
21814;SDS011;11069;48.988;8.450;2023-04-23T02:07:59;10.90;;;9.68;;
21814;SDS011;11069;48.988;8.450;2023-04-23T02:10:24;11.10;;;10.00;;
21814;SDS011;11069;48.988;8.450;2023-04-23T02:12:50;10.77;;;9.35;;
21814;SDS011;11069;48.988;8.450;2023-04-23T02:15:16;11.75;;;9.20;;
21814;SDS011;11069;48.988;8.450;2023-04-23T02:17:41;10.25;;;9.02;;
21814;SDS011;11069;48.988;8.450;2023-04-23T02:20:07;9.57;;;8.50;;
21814;SDS011;11069;48.988;8.450;2023-04-23T02:22:35;13.48;;;8.98;;
21814;SDS011;11069;48.988;8.450;2023-04-23T02:25:03;11.27;;;8.30;;
21814;SDS011;11069;48.988;8.450;2023-04-23T02:27:29;10.10;;;8.30;;
21814;SDS011;11069;48.988;8.450;2023-04-23T02:29:57;10.82;;;8.77;;
21814;SDS011;11069;48.988;8.450;2023-04-23T02:32:23;10.60;;;8.77;;
21814;SDS011;11069;48.988;8.450;2023-04-23T02:34:48;10.63;;;8.15;;
21814;SDS011;11069;48.988;8.450;2023-04-23T02:37:14;10.02;;;8.52;;
21814;SDS011;11069;48.988;8.450;2023-04-23T02:39:40;10.18;;;7.60;;
21814;SDS011;11069;48.988;8.450;2023-04-23T02:42:05;10.30;;;8.00;;
21814;SDS011;11069;48.988;8.450;2023-04-23T02:44:31;8.55;;;7.68;;
21814;SDS011;11069;48.988;8.450;2023-04-23T02:46:57;8.32;;;6.90;;
21814;SDS011;11069;48.988;8.450;2023-04-23T02:49:22;10.68;;;7.32;;
21814;SDS011;11069;48.988;8.450;2023-04-23T02:51:48;8.25;;;7.45;;
21814;SDS011;11069;48.988;8.450;2023-04-23T02:54:14;10.75;;;7.70;;
21814;SDS011;11069;48.988;8.450;2023-04-23T02:56:40;8.95;;;7.90;;
21814;SDS011;11069;48.988;8.450;2023-04-23T02:59:06;11.32;;;7.93;;
21814;SDS011;11069;48.988;8.450;2023-04-23T03:01:32;8.70;;;7.80;;
21814;SDS011;11069;48.988;8.450;2023-04-23T03:03:58;12.40;;;7.38;;
21814;SDS011;11069;48.988;8.450;2023-04-23T03:06:25;8.90;;;6.75;;
21814;SDS011;11069;48.988;8.450;2023-04-23T03:08:51;8.73;;;7.00;;
21814;SDS011;11069;48.988;8.450;2023-04-23T03:11:17;7.30;;;6.50;;
21814;SDS011;11069;48.988;8.450;2023-04-23T03:13:42;7.97;;;6.65;;
21814;SDS011;11069;48.988;8.450;2023-04-23T03:16:08;7.35;;;6.22;;
21814;SDS011;11069;48.988;8.450;2023-04-23T03:18:34;7.82;;;6.78;;
21814;SDS011;11069;48.988;8.450;2023-04-23T03:20:59;8.40;;;6.68;;
21814;SDS011;11069;48.988;8.450;2023-04-23T03:23:25;8.85;;;7.10;;
21814;SDS011;11069;48.988;8.450;2023-04-23T03:25:51;9.20;;;7.15;;
21814;SDS011;11069;48.988;8.450;2023-04-23T03:28:16;8.00;;;6.72;;
21814;SDS011;11069;48.988;8.450;2023-04-23T03:30:42;9.82;;;7.55;;
21814;SDS011;11069;48.988;8.450;2023-04-23T03:33:07;8.15;;;7.32;;
21814;SDS011;11069;48.988;8.450;2023-04-23T03:35:33;10.57;;;7.88;;
21814;SDS011;11069;48.988;8.450;2023-04-23T03:37:58;9.32;;;7.53;;
21814;SDS011;11069;48.988;8.450;2023-04-23T03:40:24;10.05;;;8.23;;
21814;SDS011;11069;48.988;8.450;2023-04-23T03:42:50;8.77;;;7.88;;
21814;SDS011;11069;48.988;8.450;2023-04-23T03:45:15;10.85;;;8.35;;
21814;SDS011;11069;48.988;8.450;2023-04-23T03:47:41;10.85;;;8.15;;
21814;SDS011;11069;48.988;8.450;2023-04-23T03:50:07;10.70;;;8.20;;
21814;SDS011;11069;48.988;8.450;2023-04-23T03:52:34;8.65;;;7.75;;
21814;SDS011;11069;48.988;8.450;2023-04-23T03:55:00;10.57;;;7.95;;
21814;SDS011;11069;48.988;8.450;2023-04-23T03:57:26;9.32;;;6.90;;
21814;SDS011;11069;48.988;8.450;2023-04-23T03:59:51;8.18;;;7.10;;
21814;SDS011;11069;48.988;8.450;2023-04-23T04:02:17;6.97;;;6.20;;
21814;SDS011;11069;48.988;8.450;2023-04-23T04:04:43;7.28;;;6.57;;
21814;SDS011;11069;48.988;8.450;2023-04-23T04:07:10;6.95;;;6.22;;
21814;SDS011;11069;48.988;8.450;2023-04-23T04:09:36;8.38;;;6.82;;
21814;SDS011;11069;48.988;8.450;2023-04-23T04:12:03;7.85;;;6.63;;
21814;SDS011;11069;48.988;8.450;2023-04-23T04:14:29;8.02;;;7.22;;
21814;SDS011;11069;48.988;8.450;2023-04-23T04:16:56;10.27;;;7.50;;
21814;SDS011;11069;48.988;8.450;2023-04-23T04:19:22;9.13;;;7.03;;
21814;SDS011;11069;48.988;8.450;2023-04-23T04:21:48;8.98;;;6.95;;
21814;SDS011;11069;48.988;8.450;2023-04-23T04:24:14;8.40;;;7.50;;
21814;SDS011;11069;48.988;8.450;2023-04-23T04:26:39;7.43;;;6.65;;
21814;SDS011;11069;48.988;8.450;2023-04-23T04:29:06;7.93;;;7.13;;
21814;SDS011;11069;48.988;8.450;2023-04-23T04:31:33;8.50;;;7.38;;
21814;SDS011;11069;48.988;8.450;2023-04-23T04:33:59;10.57;;;7.95;;
21814;SDS011;11069;48.988;8.450;2023-04-23T04:36:25;10.15;;;9.10;;
21814;SDS011;11069;48.988;8.450;2023-04-23T04:38:56;11.10;;;8.93;;
21814;SDS011;11069;48.988;8.450;2023-04-23T04:41:31;10.38;;;8.98;;
21814;SDS011;11069;48.988;8.450;2023-04-23T04:43:57;11.45;;;9.90;;
21814;SDS011;11069;48.988;8.450;2023-04-23T04:46:23;13.02;;;10.32;;
21814;SDS011;11069;48.988;8.450;2023-04-23T04:48:50;10.80;;;9.43;;
21814;SDS011;11069;48.988;8.450;2023-04-23T04:51:16;13.98;;;9.73;;
21814;SDS011;11069;48.988;8.450;2023-04-23T04:53:41;13.63;;;10.68;;
21814;SDS011;11069;48.988;8.450;2023-04-23T04:56:07;11.07;;;9.98;;
21814;SDS011;11069;48.988;8.450;2023-04-23T04:58:33;11.80;;;10.52;;
21814;SDS011;11069;48.988;8.450;2023-04-23T05:01:02;13.60;;;10.77;;
21814;SDS011;11069;48.988;8.450;2023-04-23T05:03:29;11.95;;;10.27;;
21814;SDS011;11069;48.988;8.450;2023-04-23T05:05:56;12.23;;;10.80;;
21814;SDS011;11069;48.988;8.450;2023-04-23T05:08:24;12.90;;;11.48;;
21814;SDS011;11069;48.988;8.450;2023-04-23T05:10:50;11.85;;;10.65;;
21814;SDS011;11069;48.988;8.450;2023-04-23T05:13:16;13.00;;;11.35;;
21814;SDS011;11069;48.988;8.450;2023-04-23T05:15:42;13.98;;;11.32;;
21814;SDS011;11069;48.988;8.450;2023-04-23T05:18:08;13.15;;;10.90;;
21814;SDS011;11069;48.988;8.450;2023-04-23T05:20:34;12.75;;;11.32;;
21814;SDS011;11069;48.988;8.450;2023-04-23T05:23:00;13.98;;;11.60;;
21814;SDS011;11069;48.988;8.450;2023-04-23T05:25:27;14.88;;;11.70;;
21814;SDS011;11069;48.988;8.450;2023-04-23T05:27:54;12.55;;;11.25;;
21814;SDS011;11069;48.988;8.450;2023-04-23T05:30:19;14.68;;;12.10;;
21814;SDS011;11069;48.988;8.450;2023-04-23T05:32:45;17.85;;;12.25;;
21814;SDS011;11069;48.988;8.450;2023-04-23T05:35:11;17.52;;;12.88;;
21814;SDS011;11069;48.988;8.450;2023-04-23T05:37:36;14.40;;;12.35;;
21814;SDS011;11069;48.988;8.450;2023-04-23T05:40:02;13.77;;;11.63;;
21814;SDS011;11069;48.988;8.450;2023-04-23T05:42:30;14.38;;;12.00;;
21814;SDS011;11069;48.988;8.450;2023-04-23T05:44:56;16.35;;;12.52;;
21814;SDS011;11069;48.988;8.450;2023-04-23T05:47:21;13.63;;;12.23;;
21814;SDS011;11069;48.988;8.450;2023-04-23T05:49:47;13.00;;;11.63;;
21814;SDS011;11069;48.988;8.450;2023-04-23T05:52:13;12.55;;;11.25;;
21814;SDS011;11069;48.988;8.450;2023-04-23T05:54:40;12.75;;;11.45;;
21814;SDS011;11069;48.988;8.450;2023-04-23T05:57:05;13.00;;;11.60;;
21814;SDS011;11069;48.988;8.450;2023-04-23T05:59:32;15.20;;;11.60;;
21814;SDS011;11069;48.988;8.450;2023-04-23T06:01:58;12.00;;;10.10;;
21814;SDS011;11069;48.988;8.450;2023-04-23T06:04:24;9.82;;;8.75;;
21814;SDS011;11069;48.988;8.450;2023-04-23T06:06:49;10.55;;;8.82;;
21814;SDS011;11069;48.988;8.450;2023-04-23T06:09:15;9.10;;;7.78;;
21814;SDS011;11069;48.988;8.450;2023-04-23T06:11:41;9.68;;;7.20;;
21814;SDS011;11069;48.988;8.450;2023-04-23T06:14:06;7.88;;;7.10;;
21814;SDS011;11069;48.988;8.450;2023-04-23T06:16:32;8.23;;;6.93;;
21814;SDS011;11069;48.988;8.450;2023-04-23T06:18:57;7.60;;;6.80;;
21814;SDS011;11069;48.988;8.450;2023-04-23T06:21:23;8.90;;;6.40;;
21814;SDS011;11069;48.988;8.450;2023-04-23T06:23:48;6.68;;;5.97;;
21814;SDS011;11069;48.988;8.450;2023-04-23T06:26:14;6.40;;;5.60;;
21814;SDS011;11069;48.988;8.450;2023-04-23T06:28:40;6.45;;;5.85;;
21814;SDS011;11069;48.988;8.450;2023-04-23T06:31:10;6.57;;;5.15;;
21814;SDS011;11069;48.988;8.450;2023-04-23T06:33:36;6.28;;;5.45;;
21814;SDS011;11069;48.988;8.450;2023-04-23T06:36:02;5.65;;;5.03;;
21814;SDS011;11069;48.988;8.450;2023-04-23T06:38:28;4.90;;;4.50;;
21814;SDS011;11069;48.988;8.450;2023-04-23T06:40:54;6.07;;;4.57;;
21814;SDS011;11069;48.988;8.450;2023-04-23T06:43:19;4.38;;;3.88;;
21814;SDS011;11069;48.988;8.450;2023-04-23T06:45:45;3.85;;;3.47;;
21814;SDS011;11069;48.988;8.450;2023-04-23T06:48:11;4.78;;;2.95;;
21814;SDS011;11069;48.988;8.450;2023-04-23T06:50:37;2.63;;;2.42;;
21814;SDS011;11069;48.988;8.450;2023-04-23T06:53:03;3.22;;;2.38;;
21814;SDS011;11069;48.988;8.450;2023-04-23T06:55:29;2.63;;;2.05;;
21814;SDS011;11069;48.988;8.450;2023-04-23T06:57:55;2.00;;;1.80;;
21814;SDS011;11069;48.988;8.450;2023-04-23T07:00:24;3.08;;;1.70;;
21814;SDS011;11069;48.988;8.450;2023-04-23T07:02:49;2.60;;;1.73;;
21814;SDS011;11069;48.988;8.450;2023-04-23T07:05:18;1.73;;;1.40;;
21814;SDS011;11069;48.988;8.450;2023-04-23T07:07:44;2.60;;;1.48;;
21814;SDS011;11069;48.988;8.450;2023-04-23T07:10:09;1.98;;;1.58;;
21814;SDS011;11069;48.988;8.450;2023-04-23T07:12:38;1.40;;;1.30;;
21814;SDS011;11069;48.988;8.450;2023-04-23T07:15:05;1.45;;;1.30;;
21814;SDS011;11069;48.988;8.450;2023-04-23T07:17:31;1.40;;;1.30;;
21814;SDS011;11069;48.988;8.450;2023-04-23T07:19:57;1.90;;;1.05;;
21814;SDS011;11069;48.988;8.450;2023-04-23T07:22:24;3.08;;;1.33;;
21814;SDS011;11069;48.988;8.450;2023-04-23T07:24:50;1.40;;;1.30;;
21814;SDS011;11069;48.988;8.450;2023-04-23T07:27:16;1.80;;;1.45;;
21814;SDS011;11069;48.988;8.450;2023-04-23T07:29:42;1.48;;;1.30;;
21814;SDS011;11069;48.988;8.450;2023-04-23T07:32:08;2.17;;;1.70;;
21814;SDS011;11069;48.988;8.450;2023-04-23T07:34:33;1.50;;;1.13;;
21814;SDS011;11069;48.988;8.450;2023-04-23T07:37:00;2.97;;;1.20;;
21814;SDS011;11069;48.988;8.450;2023-04-23T07:39:26;1.38;;;1.15;;
21814;SDS011;11069;48.988;8.450;2023-04-23T07:41:52;1.55;;;1.20;;
21814;SDS011;11069;48.988;8.450;2023-04-23T07:44:18;1.30;;;1.20;;
21814;SDS011;11069;48.988;8.450;2023-04-23T07:46:43;1.70;;;1.20;;
21814;SDS011;11069;48.988;8.450;2023-04-23T07:49:09;1.52;;;1.20;;
21814;SDS011;11069;48.988;8.450;2023-04-23T07:51:35;1.20;;;1.10;;
21814;SDS011;11069;48.988;8.450;2023-04-23T07:54:00;1.35;;;1.10;;
21814;SDS011;11069;48.988;8.450;2023-04-23T07:56:26;1.17;;;1.00;;
21814;SDS011;11069;48.988;8.450;2023-04-23T07:58:52;1.20;;;1.10;;
21814;SDS011;11069;48.988;8.450;2023-04-23T08:01:18;1.35;;;1.10;;
21814;SDS011;11069;48.988;8.450;2023-04-23T08:03:43;1.60;;;1.20;;
21814;SDS011;11069;48.988;8.450;2023-04-23T08:06:10;3.78;;;1.40;;
21814;SDS011;11069;48.988;8.450;2023-04-23T08:08:38;2.78;;;1.20;;
21814;SDS011;11069;48.988;8.450;2023-04-23T08:11:04;1.90;;;1.13;;
21814;SDS011;11069;48.988;8.450;2023-04-23T08:13:31;1.73;;;1.25;;
21814;SDS011;11069;48.988;8.450;2023-04-23T08:15:56;1.70;;;1.20;;
21814;SDS011;11069;48.988;8.450;2023-04-23T08:18:22;2.97;;;1.30;;
21814;SDS011;11069;48.988;8.450;2023-04-23T08:20:47;2.63;;;1.30;;
21814;SDS011;11069;48.988;8.450;2023-04-23T08:23:13;2.55;;;1.65;;
21814;SDS011;11069;48.988;8.450;2023-04-23T08:25:39;1.75;;;1.50;;
21814;SDS011;11069;48.988;8.450;2023-04-23T08:28:04;2.65;;;1.45;;
21814;SDS011;11069;48.988;8.450;2023-04-23T08:30:30;1.50;;;1.40;;
21814;SDS011;11069;48.988;8.450;2023-04-23T08:32:55;2.13;;;1.38;;
21814;SDS011;11069;48.988;8.450;2023-04-23T08:35:22;1.40;;;1.30;;
21814;SDS011;11069;48.988;8.450;2023-04-23T08:37:47;1.88;;;1.30;;
21814;SDS011;11069;48.988;8.450;2023-04-23T08:40:13;3.08;;;1.65;;
21814;SDS011;11069;48.988;8.450;2023-04-23T08:42:49;1.30;;;1.20;;
21814;SDS011;11069;48.988;8.450;2023-04-23T08:45:15;1.77;;;1.50;;
21814;SDS011;11069;48.988;8.450;2023-04-23T08:47:41;2.97;;;1.40;;
21814;SDS011;11069;48.988;8.450;2023-04-23T08:50:08;2.53;;;1.73;;
21814;SDS011;11069;48.988;8.450;2023-04-23T08:52:37;1.73;;;1.40;;
21814;SDS011;11069;48.988;8.450;2023-04-23T08:55:07;2.78;;;1.85;;
21814;SDS011;11069;48.988;8.450;2023-04-23T08:57:38;2.05;;;1.80;;
21814;SDS011;11069;48.988;8.450;2023-04-23T09:00:05;3.88;;;1.70;;
21814;SDS011;11069;48.988;8.450;2023-04-23T09:02:38;2.97;;;1.80;;
21814;SDS011;11069;48.988;8.450;2023-04-23T09:05:08;2.78;;;1.83;;
21814;SDS011;11069;48.988;8.450;2023-04-23T09:07:34;3.17;;;1.95;;
21814;SDS011;11069;48.988;8.450;2023-04-23T09:10:03;1.92;;;1.60;;
21814;SDS011;11069;48.988;8.450;2023-04-23T09:12:34;2.78;;;1.80;;
21814;SDS011;11069;48.988;8.450;2023-04-23T09:15:00;1.92;;;1.70;;
21814;SDS011;11069;48.988;8.450;2023-04-23T09:17:37;3.97;;;1.60;;
21814;SDS011;11069;48.988;8.450;2023-04-23T09:20:05;1.77;;;1.60;;
21814;SDS011;11069;48.988;8.450;2023-04-23T09:22:46;1.80;;;1.50;;
21814;SDS011;11069;48.988;8.450;2023-04-23T09:25:13;3.20;;;1.70;;
21814;SDS011;11069;48.988;8.450;2023-04-23T09:27:41;2.35;;;1.73;;
21814;SDS011;11069;48.988;8.450;2023-04-23T09:30:07;2.10;;;1.90;;
21814;SDS011;11069;48.988;8.450;2023-04-23T09:32:35;2.55;;;1.65;;
21814;SDS011;11069;48.988;8.450;2023-04-23T09:35:03;2.10;;;1.90;;
21814;SDS011;11069;48.988;8.450;2023-04-23T09:37:30;1.95;;;1.50;;
21814;SDS011;11069;48.988;8.450;2023-04-23T09:39:59;2.67;;;1.80;;
21814;SDS011;11069;48.988;8.450;2023-04-23T09:42:28;2.65;;;1.80;;
21814;SDS011;11069;48.988;8.450;2023-04-23T09:50:05;1.73;;;1.55;;
21814;SDS011;11069;48.988;8.450;2023-04-23T09:52:31;2.38;;;1.60;;
21814;SDS011;11069;48.988;8.450;2023-04-23T09:55:00;1.98;;;1.60;;
21814;SDS011;11069;48.988;8.450;2023-04-23T09:57:26;1.75;;;1.40;;
21814;SDS011;11069;48.988;8.450;2023-04-23T09:59:52;1.25;;;1.10;;
21814;SDS011;11069;48.988;8.450;2023-04-23T10:02:25;1.30;;;1.20;;
21814;SDS011;11069;48.988;8.450;2023-04-23T10:04:51;2.47;;;1.40;;
21814;SDS011;11069;48.988;8.450;2023-04-23T10:07:17;2.72;;;1.20;;
21814;SDS011;11069;48.988;8.450;2023-04-23T10:09:44;3.65;;;1.42;;
21814;SDS011;11069;48.988;8.450;2023-04-23T10:12:12;2.53;;;1.40;;
21814;SDS011;11069;48.988;8.450;2023-04-23T10:14:38;3.42;;;1.33;;
21814;SDS011;11069;48.988;8.450;2023-04-23T10:17:06;2.15;;;1.45;;
21814;SDS011;11069;48.988;8.450;2023-04-23T10:19:33;1.52;;;1.42;;
21814;SDS011;11069;48.988;8.450;2023-04-23T10:22:03;1.17;;;1.08;;
21814;SDS011;11069;48.988;8.450;2023-04-23T10:24:32;2.45;;;1.40;;
21814;SDS011;11069;48.988;8.450;2023-04-23T10:27:05;1.75;;;1.13;;
21814;SDS011;11069;48.988;8.450;2023-04-23T10:29:37;1.80;;;1.38;;
21814;SDS011;11069;48.988;8.450;2023-04-23T10:32:03;2.08;;;1.38;;
21814;SDS011;11069;48.988;8.450;2023-04-23T10:34:31;1.60;;;1.40;;
21814;SDS011;11069;48.988;8.450;2023-04-23T10:36:57;3.28;;;1.40;;
21814;SDS011;11069;48.988;8.450;2023-04-23T10:39:28;2.22;;;1.40;;
21814;SDS011;11069;48.988;8.450;2023-04-23T10:41:58;2.35;;;1.38;;
21814;SDS011;11069;48.988;8.450;2023-04-23T10:44:32;2.22;;;1.52;;
21814;SDS011;11069;48.988;8.450;2023-04-23T10:47:00;1.88;;;1.20;;
21814;SDS011;11069;48.988;8.450;2023-04-23T10:49:28;1.30;;;1.20;;
21814;SDS011;11069;48.988;8.450;2023-04-23T10:52:28;3.58;;;1.40;;
21814;SDS011;11069;48.988;8.450;2023-04-23T10:54:48;1.35;;;1.25;;
21814;SDS011;11069;48.988;8.450;2023-04-23T10:57:20;2.38;;;1.30;;
21814;SDS011;11069;48.988;8.450;2023-04-23T10:59:53;1.20;;;1.10;;
21814;SDS011;11069;48.988;8.450;2023-04-23T11:02:21;1.63;;;1.27;;
21814;SDS011;11069;48.988;8.450;2023-04-23T11:04:57;1.48;;;1.30;;
21814;SDS011;11069;48.988;8.450;2023-04-23T11:07:30;2.45;;;1.40;;
21814;SDS011;11069;48.988;8.450;2023-04-23T11:09:59;1.63;;;1.33;;
21814;SDS011;11069;48.988;8.450;2023-04-23T11:12:38;2.63;;;1.35;;
21814;SDS011;11069;48.988;8.450;2023-04-23T11:20:12;1.55;;;1.10;;
21814;SDS011;11069;48.988;8.450;2023-04-23T11:22:43;1.80;;;1.00;;
21814;SDS011;11069;48.988;8.450;2023-04-23T11:25:11;1.38;;;1.13;;
21814;SDS011;11069;48.988;8.450;2023-04-23T11:27:38;1.27;;;1.17;;
21814;SDS011;11069;48.988;8.450;2023-04-23T11:30:15;1.63;;;1.20;;
21814;SDS011;11069;48.988;8.450;2023-04-23T11:32:49;1.75;;;1.20;;
21814;SDS011;11069;48.988;8.450;2023-04-23T11:35:17;2.65;;;1.10;;
21814;SDS011;11069;48.988;8.450;2023-04-23T11:37:44;1.45;;;0.90;;
21814;SDS011;11069;48.988;8.450;2023-04-23T11:40:11;2.33;;;0.90;;
21814;SDS011;11069;48.988;8.450;2023-04-23T11:42:42;2.72;;;1.15;;
21814;SDS011;11069;48.988;8.450;2023-04-23T11:45:23;3.28;;;1.27;;
21814;SDS011;11069;48.988;8.450;2023-04-23T11:47:52;1.15;;;1.05;;
21814;SDS011;11069;48.988;8.450;2023-04-23T11:52:51;1.73;;;0.93;;
21814;SDS011;11069;48.988;8.450;2023-04-23T11:55:21;2.05;;;1.00;;
21814;SDS011;11069;48.988;8.450;2023-04-23T11:57:47;1.38;;;1.08;;
21814;SDS011;11069;48.988;8.450;2023-04-23T12:00:15;4.00;;;0.95;;
21814;SDS011;11069;48.988;8.450;2023-04-23T12:02:51;2.25;;;1.23;;
21814;SDS011;11069;48.988;8.450;2023-04-23T12:05:27;2.58;;;0.90;;
21814;SDS011;11069;48.988;8.450;2023-04-23T12:10:33;1.52;;;1.25;;
21814;SDS011;11069;48.988;8.450;2023-04-23T12:13:06;4.40;;;1.50;;
21814;SDS011;11069;48.988;8.450;2023-04-23T12:15:44;1.08;;;1.00;;
21814;SDS011;11069;48.988;8.450;2023-04-23T12:18:14;2.92;;;1.20;;
21814;SDS011;11069;48.988;8.450;2023-04-23T12:20:40;3.13;;;1.42;;
21814;SDS011;11069;48.988;8.450;2023-04-23T12:23:06;1.88;;;1.08;;
21814;SDS011;11069;48.988;8.450;2023-04-23T12:25:32;1.60;;;1.25;;
21814;SDS011;11069;48.988;8.450;2023-04-23T12:27:59;2.55;;;1.92;;
21814;SDS011;11069;48.988;8.450;2023-04-23T12:30:31;2.55;;;1.52;;
21814;SDS011;11069;48.988;8.450;2023-04-23T12:33:01;1.70;;;1.25;;
21814;SDS011;11069;48.988;8.450;2023-04-23T12:35:44;3.58;;;1.95;;
21814;SDS011;11069;48.988;8.450;2023-04-23T12:38:23;1.30;;;1.10;;
21814;SDS011;11069;48.988;8.450;2023-04-23T12:40:51;3.92;;;1.30;;
21814;SDS011;11069;48.988;8.450;2023-04-23T12:43:21;1.67;;;1.20;;
21814;SDS011;11069;48.988;8.450;2023-04-23T12:45:47;1.92;;;1.20;;
21814;SDS011;11069;48.988;8.450;2023-04-23T12:48:13;1.30;;;1.20;;
21814;SDS011;11069;48.988;8.450;2023-04-23T12:50:39;2.28;;;1.27;;
21814;SDS011;11069;48.988;8.450;2023-04-23T12:53:05;2.45;;;1.00;;
21814;SDS011;11069;48.988;8.450;2023-04-23T12:55:31;1.73;;;1.10;;
21814;SDS011;11069;48.988;8.450;2023-04-23T12:57:57;1.98;;;1.10;;
21814;SDS011;11069;48.988;8.450;2023-04-23T13:00:23;1.13;;;1.00;;
21814;SDS011;11069;48.988;8.450;2023-04-23T13:02:49;2.47;;;0.95;;
21814;SDS011;11069;48.988;8.450;2023-04-23T13:05:15;1.85;;;1.40;;
21814;SDS011;11069;48.988;8.450;2023-04-23T13:07:41;1.98;;;1.10;;
21814;SDS011;11069;48.988;8.450;2023-04-23T13:10:07;1.33;;;1.10;;
21814;SDS011;11069;48.988;8.450;2023-04-23T13:12:34;2.58;;;1.10;;
21814;SDS011;11069;48.988;8.450;2023-04-23T13:14:59;1.50;;;1.40;;
21814;SDS011;11069;48.988;8.450;2023-04-23T13:17:25;1.27;;;1.08;;
21814;SDS011;11069;48.988;8.450;2023-04-23T13:19:51;1.73;;;1.05;;
21814;SDS011;11069;48.988;8.450;2023-04-23T13:22:21;1.30;;;1.13;;
21814;SDS011;11069;48.988;8.450;2023-04-23T13:24:47;2.22;;;0.95;;
21814;SDS011;11069;48.988;8.450;2023-04-23T13:27:12;2.40;;;1.20;;
21814;SDS011;11069;48.988;8.450;2023-04-23T13:29:38;3.05;;;0.90;;
21814;SDS011;11069;48.988;8.450;2023-04-23T13:32:04;3.28;;;1.05;;
21814;SDS011;11069;48.988;8.450;2023-04-23T13:34:30;1.83;;;0.90;;
21814;SDS011;11069;48.988;8.450;2023-04-23T13:36:56;2.22;;;1.00;;
21814;SDS011;11069;48.988;8.450;2023-04-23T13:39:22;1.58;;;0.88;;
21814;SDS011;11069;48.988;8.450;2023-04-23T13:41:48;2.35;;;0.90;;
21814;SDS011;11069;48.988;8.450;2023-04-23T13:44:14;2.35;;;1.02;;
21814;SDS011;11069;48.988;8.450;2023-04-23T13:46:39;1.95;;;0.70;;
21814;SDS011;11069;48.988;8.450;2023-04-23T13:49:06;2.05;;;0.60;;
21814;SDS011;11069;48.988;8.450;2023-04-23T13:51:32;0.88;;;0.60;;
21814;SDS011;11069;48.988;8.450;2023-04-23T13:53:58;1.75;;;0.60;;
21814;SDS011;11069;48.988;8.450;2023-04-23T13:56:24;0.85;;;0.55;;
21814;SDS011;11069;48.988;8.450;2023-04-23T13:58:51;0.50;;;0.50;;
21814;SDS011;11069;48.988;8.450;2023-04-23T14:01:17;1.13;;;0.60;;
21814;SDS011;11069;48.988;8.450;2023-04-23T14:03:43;1.10;;;0.60;;
21814;SDS011;11069;48.988;8.450;2023-04-23T14:06:08;0.60;;;0.60;;
21814;SDS011;11069;48.988;8.450;2023-04-23T14:08:34;2.05;;;0.60;;
21814;SDS011;11069;48.988;8.450;2023-04-23T14:11:01;0.82;;;0.70;;
21814;SDS011;11069;48.988;8.450;2023-04-23T14:13:27;1.02;;;0.88;;
21814;SDS011;11069;48.988;8.450;2023-04-23T14:15:54;1.23;;;0.93;;
21814;SDS011;11069;48.988;8.450;2023-04-23T14:18:19;0.82;;;0.70;;
21814;SDS011;11069;48.988;8.450;2023-04-23T14:20:45;0.80;;;0.80;;
21814;SDS011;11069;48.988;8.450;2023-04-23T14:25:57;1.27;;;0.70;;
21814;SDS011;11069;48.988;8.450;2023-04-23T14:28:39;1.13;;;0.60;;
21814;SDS011;11069;48.988;8.450;2023-04-23T14:31:10;1.17;;;0.80;;
21814;SDS011;11069;48.988;8.450;2023-04-23T14:33:38;0.65;;;0.65;;
21814;SDS011;11069;48.988;8.450;2023-04-23T14:36:04;0.60;;;0.60;;
21814;SDS011;11069;48.988;8.450;2023-04-23T14:38:30;1.42;;;0.70;;
21814;SDS011;11069;48.988;8.450;2023-04-23T14:40:55;0.50;;;0.50;;
21814;SDS011;11069;48.988;8.450;2023-04-23T14:43:21;1.10;;;0.70;;
21814;SDS011;11069;48.988;8.450;2023-04-23T14:45:46;1.83;;;0.55;;
21814;SDS011;11069;48.988;8.450;2023-04-23T14:48:12;1.00;;;0.68;;
21814;SDS011;11069;48.988;8.450;2023-04-23T14:50:37;2.08;;;0.77;;
21814;SDS011;11069;48.988;8.450;2023-04-23T14:53:03;1.08;;;0.52;;
21814;SDS011;11069;48.988;8.450;2023-04-23T14:55:31;1.85;;;0.70;;
21814;SDS011;11069;48.988;8.450;2023-04-23T14:57:57;1.75;;;0.63;;